Time;durP1;ratioP1;P1;durP2;ratioP2;P2;SDS_P1;SDS_P2;PMS_P1;PMS_P2;Temp;Humidity;BMP_temperature;BMP_pressure;BME280_temperature;BME280_humidity;BME280_pressure;Samples;Min_cycle;Max_cycle;Signal;HPM_P1;HPM_P2
2022/05/02 00:02:06;;;;;;;21.60;18.07;;;;;;;9.58;88.71;95545.50;4370089;32;20281;-58
2022/05/02 00:04:31;;;;;;;17.93;16.23;;;;;;;9.69;88.68;95542.75;4347451;32;20284;-59
2022/05/02 00:06:56;;;;;;;18.03;16.33;;;;;;;9.44;89.32;95544.59;4341779;32;21859;-58
2022/05/02 00:09:23;;;;;;;19.60;17.67;;;;;;;9.69;88.58;95540.91;4356833;32;20239;-58
2022/05/02 00:11:50;;;;;;;17.90;16.17;;;;;;;9.62;88.64;95535.91;4374492;32;20219;-58
2022/05/02 00:14:17;;;;;;;18.57;16.57;;;;;;;9.58;88.60;95534.91;4371092;32;20301;-59
2022/05/02 00:16:45;;;;;;;18.00;16.37;;;;;;;9.64;88.08;95525.06;4366079;32;20281;-58
2022/05/02 00:19:11;;;;;;;16.67;14.93;;;;;;;9.65;88.02;95526.63;4355368;32;20276;-58
2022/05/02 00:21:37;;;;;;;18.80;16.97;;;;;;;9.47;88.43;95525.50;4372431;32;20285;-58
2022/05/02 00:24:04;;;;;;;19.03;17.13;;;;;;;9.49;88.73;95533.97;4354017;32;20296;-58
2022/05/02 00:26:29;;;;;;;24.43;15.97;;;;;;;9.49;87.95;95526.00;4361486;32;20234;-59
2022/05/02 00:28:55;;;;;;;17.37;15.67;;;;;;;9.48;87.84;95524.44;4389457;32;20272;-59
2022/05/02 00:31:20;;;;;;;17.70;15.80;;;;;;;9.61;87.22;95518.44;4367246;32;20203;-59
2022/05/02 00:33:45;;;;;;;17.83;16.03;;;;;;;9.44;87.77;95523.41;4383735;32;20196;-58
2022/05/02 00:36:11;;;;;;;17.30;15.70;;;;;;;9.57;87.32;95511.34;4360485;32;20195;-59
2022/05/02 00:38:39;;;;;;;17.07;15.37;;;;;;;9.49;87.17;95522.56;4363814;32;20208;-58
2022/05/02 00:41:05;;;;;;;16.00;14.53;;;;;;;9.55;87.45;95513.50;4374957;32;20209;-59
2022/05/02 00:43:31;;;;;;;17.10;15.20;;;;;;;9.49;87.47;95509.34;4361093;32;20280;-59
2022/05/02 00:45:59;;;;;;;17.23;15.43;;;;;;;9.51;87.55;95510.63;4363932;32;20319;-59
2022/05/02 00:48:26;;;;;;;24.10;15.37;;;;;;;9.29;88.30;95505.81;4370701;32;20196;-58
2022/05/02 00:50:51;;;;;;;16.67;15.07;;;;;;;9.41;88.16;95510.72;4372804;32;20272;-58
2022/05/02 00:53:22;;;;;;;19.67;16.07;;;;;;;9.33;88.15;95514.00;4359044;32;20292;-58
2022/05/02 00:55:48;;;;;;;17.27;15.47;;;;;;;9.33;88.21;95507.91;4353160;32;20192;-58
2022/05/02 00:58:15;;;;;;;17.70;15.90;;;;;;;9.37;88.03;95504.41;4361241;32;20299;-58
2022/05/02 01:00:41;;;;;;;17.10;15.37;;;;;;;9.38;87.63;95505.19;4343931;32;20201;-58
2022/05/02 01:03:11;;;;;;;18.43;16.57;;;;;;;9.35;87.69;95501.28;4354025;32;20364;-58
2022/05/02 01:08:30;;;;;;;17.33;15.57;;;;;;;9.29;88.09;95494.44;4372343;32;20339;-58
2022/05/02 01:10:56;;;;;;;18.20;16.30;;;;;;;9.11;88.80;95485.38;4363977;32;20320;-58
2022/05/02 01:13:44;;;;;;;17.50;15.77;;;;;;;8.87;89.30;95495.91;4360975;32;20280;-58
2022/05/02 01:16:22;;;;;;;17.83;16.13;;;;;;;9.07;89.16;95489.63;4349994;32;20341;-58
2022/05/02 01:18:51;;;;;;;17.77;16.07;;;;;;;8.78;90.08;95494.09;4350533;32;20287;-58
2022/05/02 01:21:20;;;;;;;16.97;15.27;;;;;;;8.78;90.15;95489.59;4375247;32;20268;-59
2022/05/02 01:23:52;;;;;;;17.00;15.20;;;;;;;9.13;88.70;95479.78;4368142;32;20292;-59
2022/05/02 01:26:20;;;;;;;17.50;15.70;;;;;;;9.04;88.86;95478.81;4368230;32;20271;-59
2022/05/02 01:28:52;;;;;;;16.70;15.10;;;;;;;8.92;88.92;95474.69;4366843;32;20279;-58
2022/05/02 01:31:19;;;;;;;16.73;15.13;;;;;;;9.11;88.48;95479.28;4356695;32;20311;-59
2022/05/02 01:33:46;;;;;;;16.47;14.97;;;;;;;9.22;87.53;95475.44;4367284;32;20340;-58
2022/05/02 01:36:12;;;;;;;17.03;15.30;;;;;;;9.14;87.32;95476.88;4362841;32;20350;-63
2022/05/02 01:38:41;;;;;;;16.50;14.80;;;;;;;9.19;87.10;95479.44;4364069;32;20273;-59
2022/05/02 01:41:08;;;;;;;16.57;14.97;;;;;;;9.27;86.56;95475.41;4391253;32;20286;-59
2022/05/02 01:43:34;;;;;;;15.60;14.10;;;;;;;9.18;86.65;95475.22;4376608;32;20296;-58
2022/05/02 01:46:00;;;;;;;16.20;14.50;;;;;;;9.22;86.39;95467.50;4355154;32;20287;-58
2022/05/02 01:48:27;;;;;;;17.83;16.03;;;;;;;9.03;86.99;95467.44;4395249;32;20344;-59
2022/05/02 01:50:53;;;;;;;16.97;15.33;;;;;;;9.18;86.88;95463.84;4377619;32;20345;-59
2022/05/02 01:53:19;;;;;;;17.00;15.33;;;;;;;9.32;86.35;95467.41;4378274;32;20319;-58
2022/05/02 01:55:45;;;;;;;17.23;15.43;;;;;;;9.24;86.17;95462.72;4378898;32;20206;-58
2022/05/02 01:58:11;;;;;;;17.80;16.00;;;;;;;9.30;86.16;95458.97;4363803;32;20200;-59
2022/05/02 02:00:37;;;;;;;17.50;15.73;;;;;;;9.28;86.47;95459.25;4347738;32;20288;-58
2022/05/02 02:03:07;;;;;;;19.63;17.37;;;;;;;9.19;86.83;95465.41;4375565;32;20200;-58
2022/05/02 02:08:25;;;;;;;19.40;16.30;;;;;;;8.89;88.27;95464.66;4356806;32;20295;-58
2022/05/02 02:11:00;;;;;;;17.13;14.93;;;;;;;9.08;87.20;95466.59;4392594;32;20379;-58
2022/05/02 02:13:25;;;;;;;17.87;14.73;;;;;;;9.05;86.92;95467.94;4344631;32;20426;-58
2022/05/02 02:15:51;;;;;;;17.30;15.40;;;;;;;9.00;87.23;95459.25;4369851;32;20285;-58
2022/05/02 02:18:17;;;;;;;16.60;14.93;;;;;;;9.00;87.17;95459.25;4388791;32;20212;-58
2022/05/02 02:20:45;;;;;;;17.00;15.20;;;;;;;8.91;87.77;95462.53;4351117;32;20258;-58
2022/05/02 02:23:12;;;;;;;16.57;14.87;;;;;;;8.68;88.42;95457.19;4364610;32;20328;-59
2022/05/02 02:25:40;;;;;;;17.27;15.47;;;;;;;8.75;88.06;95461.06;4366058;32;20316;-58
2022/05/02 02:28:08;;;;;;;16.73;15.03;;;;;;;8.90;87.92;95454.88;4364297;32;20298;-59
2022/05/02 02:30:35;;;;;;;16.30;14.70;;;;;;;8.99;87.19;95457.69;4383966;32;20276;-59
2022/05/02 02:33:02;;;;;;;19.17;14.87;;;;;;;8.97;87.10;95455.31;4378671;32;20283;-59
2022/05/02 02:35:30;;;;;;;17.00;14.77;;;;;;;8.99;86.84;95458.47;4369219;32;20292;-58
2022/05/02 02:37:56;;;;;;;16.70;15.10;;;;;;;8.88;87.41;95455.16;4354426;32;20284;-59
2022/05/02 02:40:22;;;;;;;16.87;15.17;;;;;;;8.78;87.94;95455.22;4362507;32;20297;-59
2022/05/02 02:42:49;;;;;;;16.27;14.03;;;;;;;8.87;87.52;95458.84;4355524;32;20280;-59
2022/05/02 02:45:16;;;;;;;16.43;14.73;;;;;;;8.92;87.01;95456.19;4339933;32;20225;-58
2022/05/02 02:47:44;;;;;;;16.30;14.60;;;;;;;9.02;86.68;95454.47;4376573;32;20394;-58
2022/05/02 02:50:10;;;;;;;17.57;15.77;;;;;;;9.14;86.19;95461.00;4363065;32;20281;-58
2022/05/02 02:52:36;;;;;;;16.90;15.20;;;;;;;8.92;86.78;95458.81;4362853;32;20350;-58
2022/05/02 02:55:03;;;;;;;16.20;14.60;;;;;;;8.87;87.23;95461.50;4350794;32;20229;-58
2022/05/02 02:57:29;;;;;;;15.77;14.27;;;;;;;8.75;87.67;95462.91;4333389;32;20465;-58
2022/05/02 02:59:55;;;;;;;17.43;14.10;;;;;;;8.78;87.43;95457.09;4342891;32;20286;-58
2022/05/02 03:02:22;;;;;;;15.93;14.33;;;;;;;8.86;87.03;95456.50;4329268;32;20208;-58
2022/05/02 03:07:36;;;;;;;16.27;14.60;;;;;;;8.68;87.50;95455.31;4372417;32;20319;-58
2022/05/02 03:10:22;;;;;;;16.87;13.73;;;;;;;8.71;87.37;95446.84;4347692;32;20288;-59
2022/05/02 03:12:49;;;;;;;15.83;14.20;;;;;;;8.81;86.91;95452.03;4361315;32;20305;-58
2022/05/02 03:15:15;;;;;;;14.23;12.90;;;;;;;8.81;86.30;95462.59;4373654;32;20292;-59
2022/05/02 03:17:42;;;;;;;14.67;13.13;;;;;;;8.86;86.15;95453.84;4378577;32;20288;-59
2022/05/02 03:20:08;;;;;;;13.97;12.57;;;;;;;8.75;86.34;95458.41;4338731;32;20381;-58
2022/05/02 03:22:35;;;;;;;14.03;12.63;;;;;;;8.82;85.96;95455.47;4357313;32;20300;-58
2022/05/02 03:25:06;;;;;;;13.33;12.07;;;;;;;8.81;85.12;95456.53;4363738;32;20349;-59
2022/05/02 03:27:31;;;;;;;13.87;12.47;;;;;;;8.87;84.77;95450.91;4355018;32;20293;-58
2022/05/02 03:29:57;;;;;;;13.27;11.97;;;;;;;8.78;84.64;95447.28;4353474;32;20288;-58
2022/05/02 03:32:24;;;;;;;12.93;11.80;;;;;;;8.73;84.43;95444.69;4383494;32;20211;-58
2022/05/02 03:34:52;;;;;;;13.63;12.33;;;;;;;8.65;84.34;95449.81;4368802;32;20325;-58
2022/05/02 03:37:17;;;;;;;13.07;11.73;;;;;;;8.67;84.51;95445.03;4360706;32;20328;-58
2022/05/02 03:39:44;;;;;;;14.10;12.57;;;;;;;8.58;84.39;95445.63;4354837;32;20307;-58
2022/05/02 03:42:10;;;;;;;14.03;12.73;;;;;;;8.42;85.67;95446.00;4375786;32;20210;-63
2022/05/02 03:44:35;;;;;;;14.07;12.63;;;;;;;8.38;86.14;95452.91;4356996;32;20359;-58
2022/05/02 03:47:01;;;;;;;13.20;12.00;;;;;;;8.36;86.54;95457.69;4317643;32;20220;-59
2022/05/02 03:49:27;;;;;;;12.03;10.90;;;;;;;8.23;86.89;95456.44;4336403;32;20186;-58
2022/05/02 03:51:54;;;;;;;12.63;11.43;;;;;;;8.14;87.27;95450.13;4369411;32;20188;-58
2022/05/02 03:54:20;;;;;;;12.57;11.50;;;;;;;8.08;86.91;95454.69;4387986;32;20281;-58
2022/05/02 03:56:47;;;;;;;12.97;11.67;;;;;;;8.14;87.03;95443.00;4367535;32;20352;-58
2022/05/02 03:59:12;;;;;;;12.87;11.60;;;;;;;8.07;87.54;95455.75;4370201;32;20244;-58
2022/05/02 04:01:40;;;;;;;12.67;11.40;;;;;;;8.31;86.43;95444.50;4363683;32;20296;-58
2022/05/02 04:04:05;;;;;;;12.67;11.50;;;;;;;8.30;85.63;95448.19;4360987;32;20198;-58
2022/05/02 04:06:32;;;;;;;11.30;10.27;;;;;;;8.19;86.03;95452.75;4362424;32;20273;-58
2022/05/02 04:08:58;;;;;;;12.40;10.43;;;;;;;8.20;85.99;95447.19;4346854;32;20199;-58
2022/05/02 04:11:25;;;;;;;11.53;10.37;;;;;;;8.11;85.77;95459.41;4356618;32;20311;-58
2022/05/02 04:13:53;;;;;;;11.73;10.47;;;;;;;7.97;86.76;95455.78;4367521;32;20284;-58
2022/05/02 04:16:19;;;;;;;11.43;10.43;;;;;;;8.08;86.73;95445.97;4371061;32;20387;-58
2022/05/02 04:18:46;;;;;;;11.33;10.33;;;;;;;7.99;86.99;95448.38;4367904;32;20291;-58
2022/05/02 04:21:12;;;;;;;11.87;10.77;;;;;;;7.86;87.67;95452.44;4375056;32;20188;-58
2022/05/02 04:23:37;;;;;;;11.40;10.00;;;;;;;7.86;87.84;95452.44;4365329;32;20284;-58
2022/05/02 04:26:07;;;;;;;10.53;9.57;;;;;;;7.92;87.85;95455.81;4355122;32;20212;-58
2022/05/02 04:28:36;;;;;;;9.97;9.03;;;;;;;8.10;87.24;95455.19;4388154;32;20226;-59
2022/05/02 04:31:05;;;;;;;9.83;9.03;;;;;;;8.22;86.61;95455.63;4337432;32;20293;-58
2022/05/02 04:33:31;;;;;;;10.30;9.27;;;;;;;8.39;85.48;95450.00;4349481;32;20402;-58
2022/05/02 04:35:58;;;;;;;10.20;9.27;;;;;;;8.39;84.76;95443.91;4340877;32;20301;-58
2022/05/02 04:38:28;;;;;;;10.00;9.10;;;;;;;8.43;84.44;95453.66;4382075;32;20189;-58
2022/05/02 04:40:53;;;;;;;9.30;8.50;;;;;;;8.49;84.44;95457.06;4364332;32;20285;-60
2022/05/02 04:43:19;;;;;;;10.87;9.17;;;;;;;8.44;84.61;95451.81;4361516;32;20387;-58
2022/05/02 04:45:45;;;;;;;9.53;8.73;;;;;;;8.23;85.91;95456.44;4346701;32;20189;-58
2022/05/02 04:48:11;;;;;;;9.53;8.63;;;;;;;8.25;85.99;95455.09;4357104;32;20312;-59
2022/05/02 04:50:37;;;;;;;10.33;9.33;;;;;;;8.26;85.94;95456.66;4352147;32;20216;-59
2022/05/02 04:53:02;;;;;;;9.93;9.00;;;;;;;8.42;85.26;95453.94;4335834;32;20297;-59
2022/05/02 04:55:27;;;;;;;10.03;9.13;;;;;;;8.46;85.29;95453.13;4355119;32;20203;-58
2022/05/02 04:57:53;;;;;;;9.20;8.50;;;;;;;8.56;84.82;95447.75;4354171;32;20208;-57
2022/05/02 05:00:20;;;;;;;9.63;8.77;;;;;;;8.77;84.30;95443.06;4361828;32;20232;-58
2022/05/02 05:02:48;;;;;;;9.40;8.60;;;;;;;8.93;83.70;95444.53;4345975;32;20192;-58
2022/05/02 05:05:13;;;;;;;10.17;9.20;;;;;;;9.05;83.41;95453.94;4339348;32;20301;-58
2022/05/02 05:07:39;;;;;;;10.03;8.90;;;;;;;9.08;83.20;95440.12;4321848;32;20388;-59
2022/05/02 05:10:06;;;;;;;10.37;9.23;;;;;;;8.91;84.09;95443.22;4335028;32;20200;-59
2022/05/02 05:12:39;;;;;;;9.10;8.30;;;;;;;8.86;84.96;95435.31;4360634;32;20201;-59
2022/05/02 05:18:30;;;;;;;9.37;8.67;;;;;;;8.78;85.66;95428.78;4358519;32;20342;-59
2022/05/02 05:21:07;;;;;;;9.80;8.97;;;;;;;8.65;86.79;95428.66;4372482;32;20367;-58
2022/05/02 05:23:55;;;;;;;9.57;8.77;;;;;;;8.70;86.94;95423.31;4369595;32;20285;-59
2022/05/02 05:26:40;;;;;;;10.13;9.17;;;;;;;8.83;86.74;95426.09;4357448;32;20276;-58
2022/05/02 05:29:24;;;;;;;11.23;9.27;;;;;;;8.96;86.30;95420.13;4345243;32;20293;-58
2022/05/02 05:32:26;;;;;;;11.23;10.13;;;;;;;8.89;87.11;95411.75;4348087;32;20304;-59
2022/05/02 05:35:04;;;;;;;13.30;10.23;;;;;;;8.83;87.62;95414.72;4332059;32;20300;-58
2022/05/02 05:38:02;;;;;;;11.00;10.00;;;;;;;8.92;87.87;95415.69;4285977;32;20376;-58
2022/05/02 05:40:52;;;;;;;11.20;10.10;;;;;;;9.14;87.28;95418.66;4350342;32;20296;-59
2022/05/02 05:43:24;;;;;;;11.53;10.43;;;;;;;9.07;87.91;95417.41;4372639;32;20291;-58
2022/05/02 05:46:04;;;;;;;11.73;10.57;;;;;;;9.09;87.94;95418.69;4359074;32;20324;-59
2022/05/02 05:49:18;;;;;;;12.43;11.13;;;;;;;9.18;88.23;95424.94;4358502;32;20373;-59
2022/05/02 05:52:03;;;;;;;10.60;9.60;;;;;;;9.31;88.23;95418.19;4343000;32;20339;-58
2022/05/02 05:54:56;;;;;;;11.20;10.20;;;;;;;9.25;88.14;95424.59;4351297;32;20296;-59
2022/05/02 05:57:59;;;;;;;11.73;10.57;;;;;;;9.40;88.14;95420.97;4372954;32;20329;-59
2022/05/02 06:00:30;;;;;;;12.80;11.47;;;;;;;9.39;88.55;95420.19;4355834;32;20280;-59
2022/05/02 06:03:13;;;;;;;11.60;10.60;;;;;;;9.64;87.78;95422.53;4370333;32;20292;-59
2022/05/02 06:05:43;;;;;;;12.10;11.00;;;;;;;9.59;87.69;95414.66;4374393;32;20297;-58
2022/05/02 06:08:29;;;;;;;11.87;10.90;;;;;;;9.73;87.34;95420.06;4337004;32;20340;-59
2022/05/02 06:10:58;;;;;;;10.83;9.83;;;;;;;9.90;86.82;95417.69;4363074;32;20338;-59
2022/05/02 06:13:29;;;;;;;11.43;10.43;;;;;;;9.82;86.38;95409.59;4343609;32;20360;-59
2022/05/02 06:18:47;;;;;;;10.80;9.90;;;;;;;9.90;86.59;95420.34;4352992;32;20300;-59
2022/05/02 06:21:14;;;;;;;38.70;11.13;;;;;;;10.02;85.80;95421.78;4368290;32;20307;-57
2022/05/02 06:23:47;;;;;;;47.60;11.47;;;;;;;10.39;88.66;95426.31;4366681;32;20281;-58
2022/05/02 06:26:17;;;;;;;21.73;10.33;;;;;;;11.18;89.88;95427.09;4339667;32;20280;-58
2022/05/02 06:28:48;;;;;;;16.93;9.37;;;;;;;11.32;84.64;95422.56;4378270;32;20184;-55
2022/05/02 06:31:36;;;;;;;17.40;8.80;;;;;;;11.81;84.31;95423.75;4357037;32;20240;-57
2022/05/02 06:34:15;;;;;;;20.83;8.50;;;;;;;11.98;81.13;95426.56;4354695;32;20189;-56
2022/05/02 06:37:07;;;;;;;12.33;9.23;;;;;;;12.18;82.04;95422.66;4367642;32;20242;-57
2022/05/02 06:40:18;;;;;;;12.40;8.47;;;;;;;12.39;80.31;95424.56;4358629;32;20188;-57
2022/05/02 06:43:05;;;;;;;10.93;8.97;;;;;;;12.49;78.21;95426.19;4341587;32;20198;-57
2022/05/02 06:45:50;;;;;;;9.47;8.67;;;;;;;12.59;77.81;95425.94;4373057;32;20286;-57
2022/05/02 06:48:36;;;;;;;9.77;7.40;;;;;;;12.46;77.46;95423.38;4346471;32;20197;-57
2022/05/02 06:51:49;;;;;;;10.43;9.33;;;;;;;12.53;77.60;95423.72;4344838;32;20211;-57
2022/05/02 06:54:35;;;;;;;12.70;11.23;;;;;;;12.63;77.26;95418.16;4347965;32;20293;-57
2022/05/02 06:57:38;;;;;;;11.93;9.97;;;;;;;12.66;78.25;95413.00;4370594;32;20286;-58
2022/05/02 07:00:15;;;;;;;12.87;11.53;;;;;;;12.80;77.84;95418.25;4384292;32;20188;-58
2022/05/02 07:02:47;;;;;;;10.80;9.80;;;;;;;12.91;76.88;95424.88;4345543;32;20207;-58
2022/05/02 07:05:37;;;;;;;14.20;12.23;;;;;;;13.16;75.42;95420.81;4358822;32;20196;-58
2022/05/02 07:08:05;;;;;;;20.37;15.63;;;;;;;13.27;75.21;95411.47;4347614;32;20184;-58
2022/05/02 07:10:37;;;;;;;14.00;12.60;;;;;;;13.22;74.86;95414.28;4363280;32;20212;-57
2022/05/02 07:13:29;;;;;;;15.83;12.90;;;;;;;13.32;76.31;95410.53;4374362;32;20209;-57
2022/05/02 07:16:25;;;;;;;15.07;13.57;;;;;;;13.38;75.52;95409.31;4374596;32;20188;-58
2022/05/02 07:19:25;;;;;;;15.83;14.17;;;;;;;13.46;75.27;95405.91;4353577;32;20274;-58
2022/05/02 07:22:01;;;;;;;17.60;15.73;;;;;;;13.62;75.03;95404.37;4357091;32;20197;-58
2022/05/02 07:25:03;;;;;;;15.60;14.00;;;;;;;13.55;74.89;95406.69;4363825;32;20188;-57
2022/05/02 07:28:06;;;;;;;19.77;17.43;;;;;;;13.70;74.73;95408.94;4326716;32;20177;-58
2022/05/02 07:30:32;;;;;;;16.97;15.27;;;;;;;13.82;74.07;95405.66;4330605;32;20212;-58
2022/05/02 07:33:01;;;;;;;17.93;16.03;;;;;;;13.85;73.87;95409.59;4367365;32;20207;-58
2022/05/02 07:35:30;;;;;;;17.83;16.03;;;;;;;13.98;73.93;95408.66;4359905;32;20207;-58
2022/05/02 07:37:58;;;;;;;18.20;16.30;;;;;;;14.09;73.05;95405.41;4371590;32;20277;-57
2022/05/02 07:40:25;;;;;;;16.17;14.67;;;;;;;14.05;72.52;95399.09;4367408;32;20184;-58
2022/05/02 07:42:54;;;;;;;17.63;15.87;;;;;;;14.16;72.79;95409.47;4351618;32;20220;-58
2022/05/02 07:45:27;;;;;;;17.53;15.83;;;;;;;14.30;71.94;95404.78;4382170;32;20188;-58
2022/05/02 07:47:57;;;;;;;16.43;14.83;;;;;;;14.37;71.56;95403.19;4391151;32;20173;-58
2022/05/02 07:50:27;;;;;;;17.43;15.73;;;;;;;14.42;71.81;95396.94;4378632;32;20208;-58
2022/05/02 07:52:54;;;;;;;16.60;15.10;;;;;;;14.75;70.42;95389.22;4369867;32;20270;-58
2022/05/02 07:55:22;;;;;;;16.93;15.33;;;;;;;14.80;70.40;95389.00;4348530;32;20233;-57
2022/05/02 07:57:48;;;;;;;19.10;17.30;;;;;;;14.66;70.70;95385.75;4344694;32;20232;-56
2022/05/02 08:00:16;;;;;;;16.90;15.27;;;;;;;14.75;69.73;95389.22;4388092;32;20183;-58
2022/05/02 08:02:44;;;;;;;17.00;15.30;;;;;;;14.78;70.19;95385.88;4369811;32;20290;-58
2022/05/02 08:05:10;;;;;;;14.77;13.37;;;;;;;14.83;69.48;95382.25;4383557;32;20196;-61
2022/05/02 08:07:47;;;;;;;13.53;12.23;;;;;;;14.84;69.33;95381.94;4367818;32;20262;-57
2022/05/02 08:10:49;;;;;;;14.30;12.90;;;;;;;15.14;69.04;95382.81;4367489;32;20282;-56
2022/05/02 08:13:56;;;;;;;12.97;11.67;;;;;;;14.81;67.87;95392.47;4349709;32;20185;-57
2022/05/02 08:16:24;;;;;;;15.00;12.50;;;;;;;14.94;69.56;95383.50;4349419;32;20188;-57
2022/05/02 08:19:26;;;;;;;13.90;12.77;;;;;;;15.03;68.80;95390.37;4377457;32;20172;-57
2022/05/02 08:28:16;;;;;;;15.57;13.97;;;;;;;14.36;70.27;95403.50;4386260;32;20237;-58
2022/05/02 08:31:12;;;;;;;14.47;13.07;;;;;;;14.24;71.86;95393.47;4356091;32;20181;-59
2022/05/02 08:33:45;;;;;;;14.80;13.40;;;;;;;14.56;71.61;95380.72;4356855;32;20191;-59
2022/05/02 08:36:28;;;;;;;13.30;12.13;;;;;;;14.70;70.83;95387.47;4366813;32;20229;-59
2022/05/02 08:39:08;;;;;;;14.70;13.50;;;;;;;14.65;70.26;95386.84;4374918;32;20196;-58
2022/05/02 08:42:13;;;;;;;14.47;13.27;;;;;;;14.72;69.48;95390.63;4349200;32;20177;-60
2022/05/02 08:45:07;;;;;;;15.20;13.77;;;;;;;14.69;70.20;95377.91;4385768;32;20278;-60
2022/05/02 08:47:54;;;;;;;13.67;12.57;;;;;;;14.64;70.48;95377.28;4379980;32;20223;-59
2022/05/02 08:51:04;;;;;;;13.13;12.03;;;;;;;14.72;70.00;95379.16;4381634;32;20188;-57
2022/05/02 08:54:00;;;;;;;14.33;13.03;;;;;;;14.94;70.34;95380.84;4358482;32;20222;-58
2022/05/02 08:57:03;;;;;;;15.63;13.40;;;;;;;15.06;69.26;95378.25;4343944;32;20188;-58
2022/05/02 09:00:07;;;;;;;13.67;12.47;;;;;;;15.03;68.77;95379.69;4352336;32;20260;-57
2022/05/02 09:03:20;;;;;;;15.00;13.70;;;;;;;14.96;68.59;95383.97;4373289;32;20218;-57
2022/05/02 09:06:08;;;;;;;15.87;14.47;;;;;;;14.95;69.57;95374.37;4355324;32;20268;-57
2022/05/02 09:08:55;;;;;;;12.97;11.87;;;;;;;14.90;69.46;95385.22;4363932;32;20203;-58
2022/05/02 09:12:02;;;;;;;16.80;15.20;;;;;;;15.13;69.98;95383.91;4372551;32;20238;-57
2022/05/02 09:14:52;;;;;;;14.70;13.47;;;;;;;15.38;68.39;95379.56;4356414;32;20199;-58
2022/05/02 09:17:46;;;;;;;15.10;13.70;;;;;;;15.19;68.23;95381.81;4363082;32;20207;-59
2022/05/02 09:20:52;;;;;;;15.70;14.30;;;;;;;15.25;67.61;95393.91;4386645;32;20232;-58
2022/05/02 09:24:18;;;;;;;14.10;12.77;;;;;;;14.97;69.04;95372.94;4387779;32;20207;-58
2022/05/02 09:27:22;;;;;;;12.70;11.53;;;;;;;15.17;68.87;95379.50;4356349;32;20177;-58
2022/05/02 09:30:19;;;;;;;15.50;14.13;;;;;;;15.22;67.29;95378.50;4359206;32;20212;-56
2022/05/02 09:33:17;;;;;;;15.23;13.83;;;;;;;15.24;68.03;95392.34;4390009;32;20209;-59
2022/05/02 09:36:21;;;;;;;15.37;14.17;;;;;;;15.10;70.07;95382.66;4355242;32;20268;-61
2022/05/02 09:38:52;;;;;;;15.40;13.33;;;;;;;15.24;68.46;95381.66;4386762;32;20189;-56
2022/05/02 09:41:49;;;;;;;12.20;11.20;;;;;;;15.38;67.61;95374.97;4372736;32;20174;-57
2022/05/02 09:51:20;;;;;;;14.27;12.90;;;;;;;15.42;67.11;95373.22;4354295;32;20254;-56
2022/05/02 09:54:07;;;;;;;13.93;12.63;;;;;;;15.48;67.62;95371.16;4379552;32;20189;-58
2022/05/02 09:56:44;;;;;;;11.23;10.33;;;;;;;15.44;67.05;95372.91;4374821;32;20294;-57
2022/05/02 09:59:30;;;;;;;9.27;8.60;;;;;;;15.37;66.86;95362.75;4352112;32;20208;-59
2022/05/02 10:02:21;;;;;;;11.00;10.10;;;;;;;15.41;67.12;95365.53;4349544;32;20185;-58
2022/05/02 10:05:06;;;;;;;9.00;8.30;;;;;;;15.25;66.81;95361.84;4363430;32;20172;-59
2022/05/02 10:08:12;;;;;;;9.13;8.37;;;;;;;15.29;66.12;95368.13;4373945;32;20247;-59
2022/05/02 10:11:12;;;;;;;8.83;8.23;;;;;;;15.34;66.85;95358.03;4354443;32;20196;-59
2022/05/02 10:13:58;;;;;;;9.93;9.13;;;;;;;15.56;65.17;95365.03;4383700;32;20220;-59
2022/05/02 10:17:02;;;;;;;8.53;8.00;;;;;;;15.36;66.42;95363.06;4371499;32;20189;-59
2022/05/02 10:20:16;;;;;;;6.60;6.17;;;;;;;15.44;65.37;95359.53;4383452;32;20184;-59
2022/05/02 10:23:30;;;;;;;6.00;5.60;;;;;;;15.66;63.46;95353.94;4324719;33;20284;-58
2022/05/02 10:26:46;;;;;;;7.33;6.93;;;;;;;15.76;62.36;95353.56;4330506;32;20192;-59
2022/05/02 10:29:48;;;;;;;9.20;8.50;;;;;;;15.70;63.36;95360.22;4376354;32;20194;-59
2022/05/02 10:32:52;;;;;;;8.27;7.57;;;;;;;15.66;63.93;95353.94;4384245;32;20194;-59
2022/05/02 10:35:21;;;;;;;10.73;9.90;;;;;;;15.80;64.07;95353.69;4385617;32;20194;-59
2022/05/02 10:38:08;;;;;;;12.20;11.27;;;;;;;15.72;65.37;95358.00;4357482;32;20252;-58
2022/05/02 10:40:44;;;;;;;12.87;11.93;;;;;;;15.72;64.98;95349.19;4356919;32;20291;-59
2022/05/02 10:43:18;;;;;;;13.47;12.37;;;;;;;15.53;66.08;95351.47;4352656;32;20288;-60
2022/05/02 10:45:45;;;;;;;12.80;11.90;;;;;;;15.53;66.23;95344.25;4372813;32;20185;-58
2022/05/02 10:48:28;;;;;;;13.40;12.40;;;;;;;15.48;66.65;95349.78;4370035;32;20184;-59
2022/05/02 10:51:18;;;;;;;14.10;13.00;;;;;;;15.36;67.67;95344.34;4367143;32;20195;-59
2022/05/02 10:53:58;;;;;;;13.57;12.47;;;;;;;15.60;67.52;95344.53;4360674;32;20180;-59
2022/05/02 10:56:51;;;;;;;13.60;12.60;;;;;;;15.83;67.32;95345.00;4391654;32;20202;-59
2022/05/02 10:59:23;;;;;;;14.67;13.37;;;;;;;15.92;66.62;95348.41;4389648;32;20222;-59
2022/05/02 11:02:19;;;;;;;14.33;13.23;;;;;;;15.98;66.71;95344.44;4376720;32;20189;-60
2022/05/02 11:05:04;;;;;;;12.33;11.37;;;;;;;15.98;66.96;95335.63;4357344;32;20207;-59
2022/05/02 11:08:10;;;;;;;12.87;11.53;;;;;;;16.09;65.79;95334.91;4372343;32;20294;-59
2022/05/02 11:10:46;;;;;;;12.00;10.97;;;;;;;16.20;64.46;95331.84;4313756;33;20194;-59
2022/05/02 11:13:23;;;;;;;11.33;10.40;;;;;;;16.29;63.25;95333.31;4319515;32;20194;-59
2022/05/02 11:16:38;;;;;;;8.93;8.23;;;;;;;16.28;62.73;95325.59;4319177;32;20233;-59
2022/05/02 11:22:41;;;;;;;10.03;9.33;;;;;;;16.19;63.16;95327.59;4295348;33;20228;-58
2022/05/02 11:25:22;;;;;;;9.83;9.20;;;;;;;16.10;63.58;95325.75;4352792;32;20191;-59
2022/05/02 11:28:30;;;;;;;14.00;12.80;;;;;;;16.09;63.00;95320.72;4310268;32;20263;-58
2022/05/02 11:31:07;;;;;;;8.50;7.90;;;;;;;16.06;63.24;95324.06;4306879;33;20198;-58
2022/05/02 11:33:56;;;;;;;9.20;8.47;;;;;;;16.06;62.36;95326.75;4313246;33;20214;-59
2022/05/02 11:36:29;;;;;;;8.73;8.13;;;;;;;15.94;64.17;95321.34;4294520;33;20194;-59
2022/05/02 11:39:08;;;;;;;9.33;8.63;;;;;;;16.10;62.81;95315.06;4312978;33;20266;-60
2022/05/02 11:41:42;;;;;;;8.93;8.33;;;;;;;16.09;63.41;95312.69;4286375;33;20182;-59
2022/05/02 11:44:13;;;;;;;8.87;8.37;;;;;;;16.15;62.19;95314.84;4315489;33;20213;-57
2022/05/02 11:47:20;;;;;;;9.50;8.60;;;;;;;16.08;61.82;95305.78;4293877;33;20197;-58
2022/05/02 11:50:18;;;;;;;8.83;8.13;;;;;;;16.20;62.09;95303.19;4289103;33;20269;-57
2022/05/02 11:52:52;;;;;;;8.80;8.10;;;;;;;16.41;61.76;95301.25;4294478;33;20256;-58
2022/05/02 11:55:28;;;;;;;8.20;7.70;;;;;;;16.59;62.80;95280.41;4296969;33;20224;-58
2022/05/02 11:58:30;;;;;;;7.67;7.17;;;;;;;16.73;61.48;95296.97;4303788;33;20185;-59
2022/05/02 12:01:09;;;;;;;7.93;7.33;;;;;;;16.87;61.89;95287.81;4274989;33;20195;-59
2022/05/02 12:04:05;;;;;;;9.17;8.40;;;;;;;16.89;60.40;95294.44;4296771;33;20190;-58
2022/05/02 12:07:01;;;;;;;8.97;8.00;;;;;;;16.58;61.13;95286.88;4348950;32;20189;-59
2022/05/02 12:09:32;;;;;;;8.33;7.83;;;;;;;16.37;62.12;95286.16;4369590;32;20188;-60
2022/05/02 12:12:12;;;;;;;8.90;8.23;;;;;;;16.44;61.84;95279.12;4365911;32;20199;-61
2022/05/02 12:14:40;;;;;;;8.07;7.63;;;;;;;16.41;61.71;95281.72;4400923;32;20207;-61
2022/05/02 12:17:15;;;;;;;7.97;7.47;;;;;;;16.44;61.14;95275.66;4386967;32;20180;-60
2022/05/02 12:19:41;;;;;;;7.70;7.13;;;;;;;16.35;61.19;95289.16;4349022;32;20219;-61
2022/05/02 12:22:16;;;;;;;7.67;7.17;;;;;;;16.29;61.51;95284.34;4384577;32;20199;-60
2022/05/02 12:24:45;;;;;;;8.00;7.40;;;;;;;16.36;61.66;95279.25;4367709;32;20234;-60
2022/05/02 12:27:14;;;;;;;8.03;7.53;;;;;;;16.27;61.60;95279.31;4369235;32;20185;-61
2022/05/02 12:29:42;;;;;;;8.27;7.67;;;;;;;16.32;61.34;95275.66;4357805;32;20196;-61
2022/05/02 12:32:14;;;;;;;7.07;6.67;;;;;;;16.13;62.06;95270.78;4363658;32;20195;-59
2022/05/02 12:34:40;;;;;;;7.53;7.03;;;;;;;16.14;62.32;95275.03;4334248;32;20197;-60
2022/05/02 12:37:31;;;;;;;7.97;7.47;;;;;;;16.10;61.94;95271.44;4361902;32;20181;-60
2022/05/02 12:40:15;;;;;;;9.17;8.57;;;;;;;16.23;62.34;95270.38;4386520;32;20260;-62
2022/05/02 12:42:48;;;;;;;9.43;8.73;;;;;;;16.21;61.98;95275.25;4374638;32;20229;-63